Time;durP1;ratioP1;P1;durP2;ratioP2;P2;SDS_P1;SDS_P2;PMS_P1;PMS_P2;Temp;Humidity;BMP_temperature;BMP_pressure;BME280_temperature;BME280_humidity;BME280_pressure;Samples;Min_cycle;Max_cycle;Signal;HPM_P1;HPM_P2
2022/06/11 00:01:06;;;;;;;6.03;5.32;;;;;;;17.04;97.32;100128.03;6167238;23;20015;-84
2022/06/11 00:03:32;;;;;;;6.28;5.40;;;;;;;17.02;97.30;100131.34;6216424;23;20087;-88
2022/06/11 00:05:58;;;;;;;5.82;5.32;;;;;;;17.00;97.04;100127.44;6216250;23;20450;-88
2022/06/11 00:08:25;;;;;;;6.78;6.07;;;;;;;17.01;96.89;100126.19;6190563;23;20066;-88
2022/06/11 00:10:51;;;;;;;6.80;5.50;;;;;;;16.98;96.95;100129.97;6216473;23;20449;-88
2022/06/11 00:13:16;;;;;;;6.40;5.60;;;;;;;16.96;97.13;100121.25;6191267;23;20031;-86
2022/06/11 00:15:43;;;;;;;6.15;5.45;;;;;;;16.95;97.21;100119.69;6191339;23;20572;-87
2022/06/11 00:18:09;;;;;;;7.30;5.35;;;;;;;16.91;97.64;100119.88;6241667;23;20035;-88
2022/06/11 00:20:35;;;;;;;7.97;5.60;;;;;;;16.92;97.15;100123.47;6166469;23;20094;-89
2022/06/11 00:23:00;;;;;;;5.85;5.20;;;;;;;16.91;97.29;100124.72;6216484;23;20314;-88
2022/06/11 00:25:26;;;;;;;6.75;4.78;;;;;;;16.92;97.03;100120.66;6191392;23;20019;-88
2022/06/11 00:27:51;;;;;;;6.78;6.07;;;;;;;16.91;97.27;100130.31;6190948;23;20323;-88
2022/06/11 00:30:18;;;;;;;7.10;5.47;;;;;;;16.92;97.28;100129.06;6216062;23;20008;-88
2022/06/11 00:32:45;;;;;;;7.93;5.45;;;;;;;16.91;97.56;100124.72;6216156;23;20012;-89
2022/06/11 00:35:11;;;;;;;6.75;5.32;;;;;;;16.87;97.56;100124.13;6191611;23;20449;-87
2022/06/11 00:37:37;;;;;;;6.68;5.20;;;;;;;16.86;97.77;100119.78;6191122;23;20012;-87
2022/06/11 00:40:04;;;;;;;7.05;5.43;;;;;;;16.71;97.89;100095.28;6191407;23;20143;-88
2022/06/11 00:42:33;;;;;;;6.45;5.43;;;;;;;16.78;98.06;100111.72;6216161;23;20012;-88
2022/06/11 00:45:14;;;;;;;9.25;5.32;;;;;;;16.78;98.01;100111.72;6216774;23;20004;-85
2022/06/11 00:47:40;;;;;;;5.82;5.20;;;;;;;16.75;98.17;100112.69;6215414;23;20047;-84
2022/06/11 00:50:24;;;;;;;6.00;5.38;;;;;;;16.74;98.01;100111.13;6216256;23;20016;-85
2022/06/11 00:52:50;;;;;;;7.68;6.13;;;;;;;16.72;98.06;100116.44;6216242;23;20021;-85
2022/06/11 00:55:31;;;;;;;8.05;5.28;;;;;;;16.71;98.06;100100.88;6166159;23;20016;-85
2022/06/11 00:58:17;;;;;;;8.07;5.53;;;;;;;16.71;98.18;100097.31;6190993;23;20091;-85
2022/06/11 01:03:41;;;;;;;6.13;5.20;;;;;;;16.65;98.56;100102.81;6222586;22;20039;-85
2022/06/11 01:06:11;;;;;;;7.53;5.47;;;;;;;16.64;98.55;100109.66;6242908;23;20055;-86
2022/06/11 01:09:12;;;;;;;6.97;5.28;;;;;;;16.60;98.72;100106.25;6243038;23;20012;-85
2022/06/11 01:11:56;;;;;;;6.32;5.68;;;;;;;16.57;99.22;100109.25;6115902;23;20047;-85
2022/06/11 01:14:33;;;;;;;7.10;5.60;;;;;;;16.59;99.09;100112.31;6242940;23;20046;-86
2022/06/11 01:17:17;;;;;;;6.07;5.47;;;;;;;16.59;98.87;100104.69;6243559;23;20020;-86
2022/06/11 01:19:49;;;;;;;;;;;;;;;16.57;98.63;100104.41;6243001;23;20007;-82
2022/06/11 01:22:32;;;;;;;7.40;5.50;;;;;;;16.55;98.82;100112.47;6245040;23;19990;-86
2022/06/11 01:25:19;;;;;;;6.05;5.47;;;;;;;16.56;98.79;100107.66;6245170;23;20067;-86
2022/06/11 01:27:48;;;;;;;6.40;5.75;;;;;;;16.55;98.66;100106.88;6244949;23;20658;-85
2022/06/11 01:30:20;;;;;;;9.48;5.43;;;;;;;16.56;98.54;100108.44;6245077;23;20047;-86
2022/06/11 01:32:52;;;;;;;7.68;5.65;;;;;;;16.56;98.57;100105.63;6243249;23;20037;-85
2022/06/11 01:35:24;;;;;;;8.10;5.53;;;;;;;16.53;98.66;100106.59;6245087;23;20457;-86
2022/06/11 01:38:27;;;;;;;6.30;5.70;;;;;;;16.52;98.78;100113.44;6244734;23;20016;-83
2022/06/11 01:41:31;;;;;;;8.13;5.95;;;;;;;16.51;98.58;100114.69;6240319;23;20036;-82
2022/06/11 01:44:01;;;;;;;6.55;5.35;;;;;;;16.51;98.53;100105.50;6243284;23;20019;-82
2022/06/11 01:46:35;;;;;;;6.57;5.60;;;;;;;16.51;98.64;100114.69;6243359;23;20333;-82
2022/06/11 01:49:06;;;;;;;7.18;5.15;;;;;;;16.51;98.60;100120.28;6243000;23;20023;-83
2022/06/11 01:51:34;;;;;;;6.28;5.68;;;;;;;16.50;98.22;100107.53;6245225;23;20528;-82
2022/06/11 01:54:13;;;;;;;7.28;5.28;;;;;;;16.50;98.31;100104.72;6244873;23;20016;-82
2022/06/11 01:56:45;;;;;;;6.00;5.40;;;;;;;16.47;98.41;100108.47;6245053;23;20019;-82
2022/06/11 01:59:32;;;;;;;8.75;5.60;;;;;;;16.52;97.80;100110.63;6243017;23;20020;-86
2022/06/11 02:02:39;;;;;;;8.00;5.80;;;;;;;16.51;98.20;100109.06;6236875;23;20427;-82
2022/06/11 02:05:06;;;;;;;5.45;4.82;;;;;;;16.52;97.70;100116.25;6115872;23;20024;-82
2022/06/11 02:08:08;;;;;;;7.22;5.18;;;;;;;16.53;97.84;100105.81;6212665;23;20496;-83
2022/06/11 02:10:52;;;;;;;5.80;5.05;;;;;;;16.52;97.83;100102.22;6214428;23;20016;-82
2022/06/11 02:13:25;;;;;;;6.15;5.30;;;;;;;16.47;98.30;100111.28;6212584;23;20023;-82
2022/06/11 02:15:59;;;;;;;7.38;5.78;;;;;;;16.51;98.11;100122.31;6214443;23;20013;-82
2022/06/11 02:18:26;;;;;;;14.07;5.72;;;;;;;16.49;98.22;100122.00;6212555;23;20013;-86
2022/06/11 02:20:57;;;;;;;6.65;5.28;;;;;;;16.45;98.16;100122.19;6187696;23;20356;-85
2022/06/11 02:23:27;;;;;;;7.78;5.47;;;;;;;16.46;98.38;100134.91;6211870;23;20332;-85
2022/06/11 02:25:57;;;;;;;8.02;5.25;;;;;;;16.44;98.15;100123.44;6214447;23;20005;-86
2022/06/11 02:28:26;;;;;;;6.00;5.00;;;;;;;16.45;98.46;100127.78;6214402;23;20512;-85
2022/06/11 02:30:53;;;;;;;7.00;5.20;;;;;;;16.45;98.61;100127.00;6212460;23;20004;-85
2022/06/11 02:33:20;;;;;;;7.65;5.90;;;;;;;16.44;98.50;100126.25;6212090;23;20493;-85
2022/06/11 02:35:55;;;;;;;7.22;5.20;;;;;;;16.45;98.24;100124.22;6212792;23;20066;-82
2022/06/11 02:38:23;;;;;;;6.60;5.50;;;;;;;16.45;98.13;100125.00;6214155;23;20013;-86
2022/06/11 02:40:56;;;;;;;5.75;5.18;;;;;;;16.42;98.72;100128.72;6212641;23;20450;-85
2022/06/11 02:43:21;;;;;;;7.97;5.32;;;;;;;16.34;98.84;100127.53;6212016;23;20040;-85
2022/06/11 02:45:47;;;;;;;6.93;5.20;;;;;;;16.34;98.93;100135.91;6213901;23;20557;-85
2022/06/11 02:48:14;;;;;;;7.65;5.10;;;;;;;16.33;99.23;100148.38;6213725;23;20024;-85
2022/06/11 02:50:40;;;;;;;6.75;5.10;;;;;;;16.31;99.30;100148.06;6212729;23;20032;-85
2022/06/11 02:53:07;;;;;;;6.05;5.45;;;;;;;16.30;99.10;100143.72;6211942;23;20446;-85
2022/06/11 02:55:33;;;;;;;7.10;5.57;;;;;;;16.25;98.76;100141.59;6214342;23;20013;-86
2022/06/11 02:57:59;;;;;;;5.70;5.15;;;;;;;16.27;99.19;100139.84;6212462;23;20023;-86
2022/06/11 03:00:32;;;;;;;5.78;5.00;;;;;;;16.28;98.89;100135.03;6213837;23;20334;-85
2022/06/11 03:02:59;;;;;;;5.43;4.78;;;;;;;16.26;98.92;100145.91;6205750;23;20450;-86
2022/06/11 03:05:28;;;;;;;6.85;5.05;;;;;;;16.27;98.80;100141.88;6213707;23;20009;-87
2022/06/11 03:07:54;;;;;;;6.30;4.93;;;;;;;16.27;98.34;100139.06;6213870;23;20012;-85
2022/06/11 03:10:21;;;;;;;8.32;5.88;;;;;;;16.29;98.29;100153.38;6187227;23;20316;-85
2022/06/11 03:12:47;;;;;;;8.50;5.50;;;;;;;16.28;98.51;100151.81;6187454;23;20020;-86
2022/06/11 03:15:14;;;;;;;7.78;5.68;;;;;;;16.28;98.31;100155.41;6213796;23;20005;-82
2022/06/11 03:17:40;;;;;;;7.90;5.30;;;;;;;16.30;98.28;100149.31;6213823;23;20039;-82
2022/06/11 03:20:07;;;;;;;8.73;5.13;;;;;;;16.25;98.31;100138.78;6213601;23;20456;-83
2022/06/11 03:22:33;;;;;;;6.85;5.15;;;;;;;16.30;98.13;100129.72;6214264;23;20051;-82
2022/06/11 03:24:59;;;;;;;8.95;5.25;;;;;;;16.27;98.30;100150.25;6213962;23;20143;-82
2022/06/11 03:27:25;;;;;;;6.47;5.68;;;;;;;16.28;98.16;100149.03;6187021;23;20008;-82
2022/06/11 03:29:51;;;;;;;7.22;5.35;;;;;;;16.26;98.48;100157.88;6187132;23;20035;-83
2022/06/11 03:32:18;;;;;;;6.93;5.00;;;;;;;16.26;98.26;100157.88;6213726;23;20426;-83
2022/06/11 03:34:45;;;;;;;7.28;5.28;;;;;;;16.26;98.48;100162.69;6213751;23;20016;-82
2022/06/11 03:37:10;;;;;;;7.22;5.20;;;;;;;16.21;98.39;100152.19;6213501;23;20522;-83
2022/06/11 03:39:36;;;;;;;5.72;4.97;;;;;;;16.22;98.49;100167.69;6213589;23;20009;-83
2022/06/11 03:42:02;;;;;;;7.35;5.22;;;;;;;16.17;98.73;100169.13;6162054;23;20012;-82
2022/06/11 03:44:27;;;;;;;8.57;5.15;;;;;;;16.18;98.91;100167.09;6186675;23;20048;-82
2022/06/11 03:46:53;;;;;;;6.93;5.20;;;;;;;16.16;98.73;100169.59;6187358;23;20044;-83
2022/06/11 03:49:19;;;;;;;6.13;5.10;;;;;;;16.21;98.92;100177.34;6212958;23;20315;-81
2022/06/11 03:51:46;;;;;;;6.40;5.40;;;;;;;16.20;99.01;100173.00;6213258;23;20023;-84
2022/06/11 03:54:12;;;;;;;8.98;5.85;;;;;;;16.18;99.36;100176.25;6213261;23;20001;-80
2022/06/11 03:56:38;;;;;;;7.50;5.32;;;;;;;16.21;98.86;100174.56;6213735;23;20403;-81
2022/06/11 03:59:05;;;;;;;6.28;4.80;;;;;;;16.23;98.11;100184.03;6213120;23;20001;-80
2022/06/11 04:01:31;;;;;;;7.60;5.05;;;;;;;16.27;98.04;100178.25;6186898;23;20009;-81
2022/06/11 04:03:59;;;;;;;6.47;5.30;;;;;;;16.34;97.49;100186.31;6236349;23;20074;-81
2022/06/11 04:06:30;;;;;;;6.15;5.15;;;;;;;16.39;97.22;100185.66;6211313;23;20450;-81
2022/06/11 04:08:56;;;;;;;5.57;4.82;;;;;;;16.43;96.43;100189.06;6211829;23;20051;-81
2022/06/11 04:11:22;;;;;;;6.50;5.63;;;;;;;16.46;96.39;100188.13;6211649;23;20013;-84
2022/06/11 04:13:50;;;;;;;6.10;4.95;;;;;;;16.48;96.64;100187.66;6213141;23;20005;-81
2022/06/11 04:16:21;;;;;;;8.57;5.32;;;;;;;16.49;96.69;100190.00;6213401;23;20474;-83
2022/06/11 04:18:48;;;;;;;6.35;5.63;;;;;;;16.50;96.24;100191.53;6186726;23;20020;-82
2022/06/11 04:21:14;;;;;;;6.18;5.38;;;;;;;16.52;96.22;100191.84;6211283;23;20015;-81
2022/06/11 04:23:44;;;;;;;7.15;5.38;;;;;;;16.50;96.48;100190.78;6211449;23;20016;-81
2022/06/11 04:26:13;;;;;;;5.45;4.95;;;;;;;16.48;96.47;100196.84;6213151;23;20382;-82
2022/06/11 04:28:40;;;;;;;7.68;5.47;;;;;;;16.48;96.28;100187.66;6213252;23;20024;-82
2022/06/11 04:31:07;;;;;;;7.80;5.60;;;;;;;16.45;96.70;100180.22;6213276;23;20004;-85
2022/06/11 04:33:33;;;;;;;7.38;5.03;;;;;;;16.48;96.19;100202.44;6212629;23;20009;-81
2022/06/11 04:35:59;;;;;;;5.95;5.00;;;;;;;16.49;96.48;100190.00;6211970;23;20494;-82
2022/06/11 04:38:25;;;;;;;5.32;4.82;;;;;;;16.55;95.97;100204.09;6211168;23;20008;-82
2022/06/11 04:40:52;;;;;;;6.78;5.13;;;;;;;16.57;95.86;100204.44;6213291;23;20001;-82
2022/06/11 04:43:17;;;;;;;6.57;5.68;;;;;;;16.56;96.10;100194.47;6211159;23;20055;-82
2022/06/11 04:45:43;;;;;;;6.45;5.20;;;;;;;16.64;95.79;100190.09;6213225;23;20004;-82
2022/06/11 04:48:10;;;;;;;8.32;5.07;;;;;;;16.66;95.25;100213.56;6213083;23;20481;-82
2022/06/11 04:50:36;;;;;;;6.15;5.07;;;;;;;16.75;95.70;100207.91;6212530;23;20083;-82
2022/06/11 04:53:02;;;;;;;6.70;4.88;;;;;;;16.88;94.73;100209.72;6211269;23;20019;-83
2022/06/11 04:55:28;;;;;;;6.57;4.85;;;;;;;16.97;94.25;100201.25;6212656;23;20000;-83
2022/06/11 04:57:54;;;;;;;7.53;5.40;;;;;;;17.10;93.62;100213.03;6209527;23;20009;-83
2022/06/11 05:00:23;;;;;;;6.07;4.97;;;;;;;17.17;93.03;100204.25;6212766;23;20016;-83
2022/06/11 05:02:49;;;;;;;7.10;5.30;;;;;;;17.24;92.82;100220.69;6213041;23;20039;-83
2022/06/11 05:05:15;;;;;;;7.22;4.63;;;;;;;17.27;91.81;100214.91;6212652;23;20339;-84
2022/06/11 05:07:41;;;;;;;6.78;5.13;;;;;;;17.33;92.32;100223.44;6212863;23;20020;-83
2022/06/11 05:10:08;;;;;;;6.78;4.88;;;;;;;17.34;92.51;100236.19;6186160;23;20040;-83
2022/06/11 05:12:34;;;;;;;5.25;4.75;;;;;;;17.32;92.04;100230.28;6186332;23;20015;-83
2022/06/11 05:14:59;;;;;;;7.07;4.80;;;;;;;17.34;92.47;100241.03;6212954;23;20335;-83
2022/06/11 05:17:25;;;;;;;5.60;4.63;;;;;;;17.34;92.08;100241.81;6210398;23;20110;-83
2022/06/11 05:19:51;;;;;;;4.85;4.35;;;;;;;17.35;91.90;100237.72;6210417;23;20007;-82
2022/06/11 05:22:16;;;;;;;10.10;4.80;;;;;;;17.33;92.23;100251.47;6210393;23;20092;-82
2022/06/11 05:24:42;;;;;;;6.82;5.18;;;;;;;17.33;91.55;100245.88;6206489;23;20011;-83
2022/06/11 05:27:15;;;;;;;5.70;4.40;;;;;;;17.37;92.09;100246.47;6210278;23;20008;-85
2022/06/11 05:29:55;;;;;;;;;;;;;;;17.38;92.23;100262.03;6209542;23;20382;-86
2022/06/11 05:32:26;;;;;;;5.85;4.60;;;;;;;17.45;92.06;100246.88;6183647;23;20310;-86
2022/06/11 05:34:52;;;;;;;7.65;4.50;;;;;;;17.54;92.33;100258.00;6211214;23;20382;-86
2022/06/11 05:37:18;;;;;;;6.88;4.97;;;;;;;17.60;91.86;100254.09;6211132;23;20001;-86
2022/06/11 05:39:46;;;;;;;7.78;4.70;;;;;;;17.74;91.35;100257.41;6210797;23;20012;-86
2022/06/11 05:42:13;;;;;;;7.70;4.45;;;;;;;17.99;91.20;100256.88;6185183;23;20016;-86
2022/06/11 05:44:39;;;;;;;5.45;4.88;;;;;;;18.19;89.86;100256.97;6160777;23;20015;-86
2022/06/11 05:47:05;;;;;;;6.70;4.50;;;;;;;18.47;88.35;100258.22;6212438;23;20140;-86
2022/06/11 05:49:35;;;;;;;5.32;4.30;;;;;;;18.67;86.95;100257.53;6185508;23;20020;-84
2022/06/11 05:52:05;;;;;;;6.47;4.57;;;;;;;18.82;86.14;100257.50;6161711;23;20019;-84
2022/06/11 05:54:33;;;;;;;5.55;4.57;;;;;;;18.95;84.76;100260.75;6185235;23;20017;-84
2022/06/11 05:56:59;;;;;;;5.55;4.30;;;;;;;19.14;84.50;100258.47;6185395;23;20009;-81
2022/06/11 05:59:29;;;;;;;4.72;4.15;;;;;;;19.33;83.16;100271.75;6159524;23;20528;-81
2022/06/11 06:01:56;;;;;;;4.35;3.85;;;;;;;19.40;81.84;100271.34;6211199;23;20121;-82
2022/06/11 06:04:22;;;;;;;4.65;4.00;;;;;;;19.32;82.75;100267.41;6184161;23;20403;-89
2022/06/11 06:06:48;;;;;;;5.82;4.22;;;;;;;19.34;83.82;100278.94;6186469;23;20083;-85
2022/06/11 06:09:13;;;;;;;5.47;4.50;;;;;;;19.26;83.76;100272.19;6161194;23;20023;-82
2022/06/11 06:11:38;;;;;;;5.13;3.78;;;;;;;19.14;84.99;100278.91;6212979;23;20083;-83
2022/06/11 06:14:04;;;;;;;6.68;4.60;;;;;;;19.05;84.96;100287.47;6213718;23;20016;-82
2022/06/11 06:16:30;;;;;;;5.28;3.92;;;;;;;18.97;85.58;100283.53;6213929;23;20001;-82
2022/06/11 06:19:00;;;;;;;6.10;4.40;;;;;;;18.89;85.81;100277.53;6163024;23;20008;-82
2022/06/11 06:21:27;;;;;;;5.80;4.32;;;;;;;18.90;85.77;100278.31;6214198;23;20014;-82
2022/06/11 06:23:53;;;;;;;5.78;3.97;;;;;;;18.86;85.84;100283.34;6187842;23;20013;-82
2022/06/11 06:26:19;;;;;;;6.55;4.55;;;;;;;18.90;85.63;100283.94;6213549;23;20036;-85
2022/06/11 06:28:44;;;;;;;5.22;4.40;;;;;;;18.93;86.18;100277.31;6211971;23;20088;-85
2022/06/11 06:31:11;;;;;;;6.43;4.32;;;;;;;19.01;85.43;100284.09;6212252;23;20015;-85
2022/06/11 06:33:37;;;;;;;7.38;4.72;;;;;;;19.30;84.97;100281.19;6212799;23;20339;-85
2022/06/11 06:36:05;;;;;;;6.45;4.22;;;;;;;19.90;83.36;100274.78;6186143;23;20023;-85
2022/06/11 06:38:31;;;;;;;6.65;3.90;;;;;;;20.33;80.76;100277.78;6186458;23;20038;-86
2022/06/11 06:40:57;;;;;;;4.43;3.70;;;;;;;20.69;78.48;100285.53;6187863;23;20063;-86
2022/06/11 06:43:22;;;;;;;4.95;3.83;;;;;;;20.95;76.66;100276.97;6213934;23;20040;-85
2022/06/11 06:45:48;;;;;;;5.20;3.90;;;;;;;20.93;77.26;100285.19;6187868;23;20012;-83
2022/06/11 06:48:14;;;;;;;5.40;3.90;;;;;;;21.08;78.01;100280.16;6213978;23;20311;-83
2022/06/11 06:50:39;;;;;;;6.03;4.28;;;;;;;21.54;76.45;100276.31;6214078;23;20059;-83
2022/06/11 06:53:05;;;;;;;7.45;3.58;;;;;;;21.90;71.53;100261.28;6214209;23;20016;-81
2022/06/11 06:55:31;;;;;;;5.50;3.67;;;;;;;22.03;71.48;100267.25;6213774;23;20163;-83
2022/06/11 06:57:57;;;;;;;5.72;3.50;;;;;;;22.19;71.92;100269.31;6187689;23;20083;-83
2022/06/11 07:00:22;;;;;;;6.25;3.83;;;;;;;22.14;68.96;100284.22;6212849;23;20000;-83
2022/06/11 07:02:48;;;;;;;6.45;3.50;;;;;;;21.98;69.02;100281.34;6212157;23;20012;-87
2022/06/11 07:05:15;;;;;;;6.10;3.80;;;;;;;21.96;69.72;100279.03;6190213;23;20091;-87
2022/06/11 07:07:41;;;;;;;5.05;3.70;;;;;;;21.77;68.54;100273.03;6208836;23;20004;-87
2022/06/11 07:10:09;;;;;;;5.45;3.90;;;;;;;21.82;68.82;100286.41;6208413;23;20023;-87
2022/06/11 07:12:34;;;;;;;4.82;3.30;;;;;;;22.19;67.95;100286.28;6158958;23;20008;-87
2022/06/11 07:15:00;;;;;;;4.55;3.30;;;;;;;22.57;67.91;100275.50;6209051;23;20457;-87
2022/06/11 07:17:32;;;;;;;5.28;3.97;;;;;;;22.78;66.19;100279.63;6208120;23;20012;-85
2022/06/11 07:20:12;;;;;;;6.78;3.47;;;;;;;22.77;66.54;100276.03;6209121;23;20036;-88
2022/06/11 07:22:43;;;;;;;4.78;3.42;;;;;;;22.97;65.17;100277.78;6158709;23;20020;-84
2022/06/11 07:25:10;;;;;;;6.25;3.22;;;;;;;23.16;64.95;100275.97;6208634;23;20255;-87
2022/06/11 07:27:37;;;;;;;5.25;3.33;;;;;;;23.40;63.98;100283.88;6209237;23;20083;-86
2022/06/11 07:30:11;;;;;;;5.30;3.63;;;;;;;23.52;62.47;100287.47;6212603;23;20357;-87
2022/06/11 07:32:38;;;;;;;4.32;3.30;;;;;;;23.54;62.57;100276.38;6212614;23;20012;-86
2022/06/11 07:35:06;;;;;;;5.95;3.47;;;;;;;23.33;61.72;100277.97;6212715;23;20012;-86
2022/06/11 07:37:32;;;;;;;7.05;3.35;;;;;;;23.03;63.17;100289.88;6185941;23;20350;-86
2022/06/11 07:39:58;;;;;;;9.05;3.30;;;;;;;22.47;64.13;100283.47;6211173;23;20015;-87
2022/06/11 07:42:24;;;;;;;6.10;3.50;;;;;;;22.21;66.12;100289.34;6212256;23;20091;-84
2022/06/11 07:44:50;;;;;;;5.18;3.50;;;;;;;22.05;67.09;100298.56;6212756;23;20016;-87
2022/06/11 07:47:53;;;;;;;4.82;3.55;;;;;;;21.90;66.59;100297.22;6210849;23;20453;-86
2022/06/11 07:50:01;;;;;;;4.40;3.40;;;;;;;21.92;67.48;100303.16;6210558;23;20028;-86
2022/06/11 07:52:28;;;;;;;5.15;3.40;;;;;;;22.02;66.11;100288.28;6184757;23;20016;-85
2022/06/11 07:54:53;;;;;;;6.07;3.20;;;;;;;22.08;65.55;100308.84;6207559;23;20025;-87
2022/06/11 07:57:19;;;;;;;5.53;3.40;;;;;;;22.16;64.47;100303.50;6209045;23;20028;-86
2022/06/11 07:59:44;;;;;;;5.88;3.38;;;;;;;22.16;63.71;100303.50;6209827;23;20477;-84
2022/06/11 08:02:10;;;;;;;7.90;3.60;;;;;;;22.26;63.19;100302.72;6210975;23;20008;-86
2022/06/11 08:04:35;;;;;;;4.55;3.33;;;;;;;22.44;63.99;100304.28;6209649;23;20027;-86
2022/06/11 08:07:01;;;;;;;6.15;2.97;;;;;;;22.57;63.50;100292.47;6209884;23;20470;-86
2022/06/11 08:09:26;;;;;;;5.88;3.50;;;;;;;22.93;62.79;100299.16;6207683;23;20032;-87
2022/06/11 08:11:52;;;;;;;4.20;3.00;;;;;;;23.32;60.79;100287.75;6159126;23;20040;-87
2022/06/11 08:14:17;;;;;;;5.97;2.92;;;;;;;23.34;60.36;100288.00;6209556;23;20044;-86
2022/06/11 08:16:43;;;;;;;6.47;3.60;;;;;;;23.65;57.24;100288.44;6209718;23;20076;-86
2022/06/11 08:19:09;;;;;;;5.15;3.10;;;;;;;23.98;57.50;100293.13;6206604;23;20220;-86
2022/06/11 08:21:34;;;;;;;5.18;2.88;;;;;;;24.22;56.27;100295.38;6178730;23;20450;-87
2022/06/11 08:24:00;;;;;;;4.13;2.80;;;;;;;24.51;55.54;100277.59;6210091;23;20039;-87
2022/06/11 08:26:26;;;;;;;4.50;2.70;;;;;;;24.77;54.11;100284.88;6210515;23;20016;-87
2022/06/11 08:28:51;;;;;;;6.00;2.70;;;;;;;24.83;53.38;100292.00;6183993;23;20082;-86
2022/06/11 08:31:17;;;;;;;4.97;2.90;;;;;;;24.90;51.97;100280.13;6211193;23;20024;-86
2022/06/11 08:33:42;;;;;;;4.43;2.55;;;;;;;25.00;51.04;100294.72;6184363;23;20438;-87
2022/06/11 08:36:09;;;;;;;4.80;2.45;;;;;;;24.82;51.03;100282.00;6184805;23;20017;-86
2022/06/11 08:38:34;;;;;;;3.17;2.55;;;;;;;25.04;51.05;100290.31;6210694;23;20004;-84
2022/06/11 08:41:00;;;;;;;5.90;2.50;;;;;;;25.25;50.31;100287.75;6211193;23;20076;-86
2022/06/11 08:43:37;;;;;;;5.35;2.60;;;;;;;25.28;48.03;100286.69;6211336;23;20061;-86
2022/06/11 08:46:03;;;;;;;7.47;2.53;;;;;;;25.24;47.95;100299.63;6184819;23;20119;-87
2022/06/11 08:48:54;;;;;;;7.07;2.83;;;;;;;25.71;49.04;100294.47;6181709;23;20017;-87
2022/06/11 08:51:38;;;;;;;5.60;2.47;;;;;;;26.30;47.88;100285.66;6184213;23;20025;-87
2022/06/11 08:54:32;;;;;;;5.82;2.88;;;;;;;26.61;43.45;100295.47;6210916;23;20020;-87
2022/06/11 08:57:09;;;;;;;4.88;2.53;;;;;;;26.41;43.76;100296.06;6159759;23;20020;-84
2022/06/11 08:59:56;;;;;;;5.72;2.40;;;;;;;26.31;44.25;100290.03;6210798;23;20012;-87
2022/06/11 09:02:31;;;;;;;4.07;2.33;;;;;;;26.52;44.99;100298.75;6210916;23;20032;-89
2022/06/11 09:05:18;;;;;;;4.50;2.50;;;;;;;26.47;41.55;100299.59;6184026;23;20043;-88
2022/06/11 09:08:11;;;;;;;3.83;2.40;;;;;;;26.10;41.21;100280.50;6211102;23;20017;-87
2022/06/11 09:10:36;;;;;;;5.40;2.28;;;;;;;26.47;41.59;100285.38;6210597;23;20091;-87
2022/06/11 09:13:38;;;;;;;5.53;2.22;;;;;;;26.19;41.74;100287.88;6184029;23;20094;-89
2022/06/11 09:16:32;;;;;;;5.18;2.30;;;;;;;25.99;42.66;100287.13;6184933;23;20032;-88
2022/06/11 09:19:00;;;;;;;4.53;2.45;;;;;;;26.24;42.49;100279.28;6210958;23;20020;-87
2022/06/11 09:21:37;;;;;;;4.05;2.35;;;;;;;26.46;41.53;100272.47;6209325;23;20085;-88
2022/06/11 09:24:02;;;;;;;6.90;2.50;;;;;;;26.54;40.91;100290.44;6210354;23;20024;-89
2022/06/11 09:27:00;;;;;;;3.80;2.17;;;;;;;26.47;40.41;100271.16;6211015;23;20005;-88
2022/06/11 09:29:54;;;;;;;6.95;2.55;;;;;;;26.31;41.03;100277.88;6210613;23;20092;-87
2022/06/11 09:32:20;;;;;;;7.07;2.20;;;;;;;26.48;40.80;100275.56;6184033;23;20020;-88
2022/06/11 09:34:48;;;;;;;3.92;2.28;;;;;;;26.47;39.75;100279.69;6159282;23;20043;-84
2022/06/11 09:37:44;;;;;;;5.20;2.33;;;;;;;26.50;40.43;100275.75;6211022;23;20020;-88
2022/06/11 09:40:41;;;;;;;4.30;2.40;;;;;;;26.68;39.83;100277.03;6124416;23;20032;-88
2022/06/11 09:43:26;;;;;;;5.80;2.10;;;;;;;26.78;39.43;100269.59;6213068;23;20025;-87
2022/06/11 09:46:07;;;;;;;4.97;2.30;;;;;;;26.84;39.25;100268.22;6213574;23;20020;-88
2022/06/11 09:48:52;;;;;;;4.50;2.42;;;;;;;26.67;38.52;100281.94;6187157;23;20028;-88
2022/06/11 09:51:50;;;;;;;8.65;2.40;;;;;;;26.59;39.62;100274.59;6213177;23;20017;-88
2022/06/11 09:54:19;;;;;;;3.70;2.20;;;;;;;26.75;39.29;100274.31;6212225;23;20020;-84
2022/06/11 09:57:17;;;;;;;4.05;2.40;;;;;;;26.92;39.18;100288.28;6213817;23;20079;-87
2022/06/11 09:59:51;;;;;;;4.30;2.15;;;;;;;26.81;37.06;100266.41;6214042;23;20008;-89
2022/06/11 10:04:52;;;;;;;4.60;2.17;;;;;;;26.69;38.73;100273.63;6213664;23;20075;-87
2022/06/11 10:07:25;;;;;;;5.85;2.20;;;;;;;26.75;37.85;100260.06;6188352;23;20152;-92
2022/06/11 10:13:46;;;;;;;7.70;2.53;;;;;;;26.58;38.33;100261.66;6212673;23;20027;-87
2022/06/11 10:16:23;;;;;;;5.43;2.30;;;;;;;26.51;38.92;100274.47;6213244;23;20012;-87
2022/06/11 10:18:49;;;;;;;3.88;2.20;;;;;;;26.47;38.48;100273.25;6213780;23;20027;-87
2022/06/11 10:21:19;;;;;;;6.45;2.45;;;;;;;26.42;38.60;100266.31;6187260;23;20119;-88
2022/06/11 10:23:59;;;;;;;9.23;2.70;;;;;;;26.40;40.38;100263.28;6214426;23;20017;-85
2022/06/11 10:26:36;;;;;;;5.68;2.50;;;;;;;26.74;37.75;100258.53;6187623;23;20492;-86
2022/06/11 10:29:21;;;;;;;4.95;2.30;;;;;;;26.65;38.72;100258.94;6213811;23;20020;-87
2022/06/11 10:32:02;;;;;;;3.95;2.20;;;;;;;26.72;38.53;100249.78;6187618;23;20094;-87
2022/06/11 10:34:29;;;;;;;5.57;2.20;;;;;;;26.82;36.62;100250.13;6212924;23;20012;-88
2022/06/11 10:37:44;;;;;;;5.68;2.80;;;;;;;26.72;37.09;100263.25;6187379;23;20028;-88
2022/06/11 10:40:21;;;;;;;3.38;2.30;;;;;;;26.42;35.90;100249.25;6181607;23;20092;-87
2022/06/11 10:42:52;;;;;;;5.25;2.30;;;;;;;26.43;36.85;100262.19;6185472;23;20346;-87
2022/06/11 10:45:18;;;;;;;6.50;2.15;;;;;;;26.73;38.99;100250.56;6212153;23;20016;-87
2022/06/11 10:47:52;;;;;;;5.13;2.10;;;;;;;26.97;36.59;100249.63;6211981;23;20035;-87
2022/06/11 10:50:22;;;;;;;7.65;2.20;;;;;;;26.87;35.38;100246.44;6211281;23;20017;-86
2022/06/11 10:52:59;;;;;;;4.95;2.08;;;;;;;26.98;35.91;100254.75;6185599;23;20017;-87
2022/06/11 10:55:44;;;;;;;5.35;2.17;;;;;;;26.63;37.32;100253.03;6185753;23;20020;-86
2022/06/11 10:58:19;;;;;;;5.22;2.38;;;;;;;26.80;37.45;100252.75;6212740;23;20071;-86
2022/06/11 11:00:50;;;;;;;4.60;2.40;;;;;;;26.59;36.88;100258.28;6211692;23;20021;-87
2022/06/11 11:03:45;;;;;;;4.63;2.10;;;;;;;26.47;36.87;100264.69;6212681;23;20009;-86
2022/06/11 11:06:26;;;;;;;3.97;2.08;;;;;;;26.68;37.28;100240.81;6188422;23;20025;-86
2022/06/11 11:09:00;;;;;;;5.78;2.30;;;;;;;26.74;37.76;100258.53;6212343;23;20013;-87
2022/06/11 11:11:27;;;;;;;6.82;2.30;;;;;;;26.64;37.03;100265.97;6212078;23;20451;-86
2022/06/11 11:14:14;;;;;;;6.10;2.38;;;;;;;26.62;37.36;100240.13;6212686;23;20066;-87
2022/06/11 11:16:43;;;;;;;4.90;2.13;;;;;;;27.00;39.34;100240.75;6185327;23;20044;-86
2022/06/11 11:19:28;;;;;;;2.58;2.10;;;;;;;27.01;39.45;100242.31;6184996;23;20443;-87
2022/06/11 11:22:04;;;;;;;4.22;2.30;;;;;;;27.13;40.19;100242.84;6185594;23;20016;-86
2022/06/11 11:24:49;;;;;;;5.43;2.38;;;;;;;27.31;40.00;100241.94;6212044;23;20100;-86
2022/06/11 11:27:18;;;;;;;4.15;2.38;;;;;;;27.32;39.57;100243.50;6185815;23;20048;-87
2022/06/11 11:29:52;;;;;;;3.92;2.30;;;;;;;27.27;39.27;100235.81;6211547;23;20036;-88
2022/06/11 11:32:33;;;;;;;6.50;2.50;;;;;;;27.38;37.40;100236.34;6187027;23;20042;-86
2022/06/11 11:35:14;;;;;;;4.13;2.45;;;;;;;27.40;37.19;100227.28;6186362;23;20047;-86
2022/06/11 11:37:39;;;;;;;5.10;2.08;;;;;;;27.42;38.25;100224.63;6213455;23;20051;-86
2022/06/11 11:40:25;;;;;;;5.00;2.20;;;;;;;27.46;37.86;100238.56;6213372;23;20443;-86
2022/06/11 11:42:57;;;;;;;3.13;2.17;;;;;;;27.69;37.90;100234.69;6187087;23;20028;-86
2022/06/11 11:45:27;;;;;;;7.15;2.50;;;;;;;27.49;37.31;100226.84;6213057;23;20013;-86
2022/06/11 11:48:04;;;;;;;3.67;2.40;;;;;;;27.38;37.92;100224.19;6213383;23;20016;-86
2022/06/11 11:50:34;;;;;;;3.42;2.30;;;;;;;27.61;39.40;100230.22;6185868;23;20526;-87
2022/06/11 11:53:19;;;;;;;6.97;2.20;;;;;;;27.40;37.78;100232.19;6186914;23;20017;-88
2022/06/11 11:55:54;;;;;;;4.97;2.10;;;;;;;27.48;36.38;100224.53;6213177;23;20016;-86